Bellarthur, North Carolina
Current Conditions -  °F | °C
As of 3:15 PM on Friday 19 Dec 2014 (Local Time) from KPGV Reporting Station
Clear Clear  
Wind Chill: 50°   Ceiling: Unl
Heat Index: 50°   Visibility: 10mi
Dew Point: 30°   Wind: 5mph
Humidity: 47%   Direction: 360°N
Pressure: 30.15"   Gusts: NA
Location:  35.59°N, 77.52°W
Report Text: KPGV 192015Z AUTO 36004KT 10SM CLR 10/M01 A3015 RMK AO2
Loading
Personal Weather Stations






























Interactive Weather Map New forecast layout! Learn more

10-Day Weather Forecast

Advertisements
Track Severe Weather on mobile